Time;durP1;ratioP1;P1;durP2;ratioP2;P2;SDS_P1;SDS_P2;PMS_P1;PMS_P2;Temp;Humidity;BMP_temperature;BMP_pressure;BME280_temperature;BME280_humidity;BME280_pressure;Samples;Min_cycle;Max_cycle;Signal;HPM_P1;HPM_P2
2023/12/30 00:02:02;;;;;;;6.80;3.60;;;;;;;7.23;79.38;98366.48;226490;1274;22627;-74
2023/12/30 00:07:06;;;;;;;6.80;3.80;;;;;;;7.24;79.05;98366.61;226399;1274;22540;-75
2023/12/30 00:12:09;;;;;;;8.20;3.70;;;;;;;7.23;79.27;98364.98;226450;1273;22545;-75
2023/12/30 00:17:12;;;;;;;5.70;3.70;;;;;;;7.23;79.33;98361.30;226510;1272;22541;-75
2023/12/30 00:22:14;;;;;;;5.40;3.60;;;;;;;7.25;79.49;98359.80;226508;1273;25494;-75
2023/12/30 00:27:16;;;;;;;5.50;3.90;;;;;;;7.23;79.22;98359.04;226408;1270;22587;-75
2023/12/30 00:32:18;;;;;;;5.00;3.50;;;;;;;7.21;79.22;98354.96;226444;1274;22578;-75
2023/12/30 00:37:20;;;;;;;5.20;3.40;;;;;;;7.22;79.25;98349.77;226324;1274;22544;-76
2023/12/30 00:42:24;;;;;;;4.80;3.50;;;;;;;7.29;79.55;98347.73;226560;1275;25292;-75
2023/12/30 00:47:26;;;;;;;4.70;3.50;;;;;;;7.34;79.27;98349.40;226375;1274;24253;-73
2023/12/30 00:52:28;;;;;;;4.20;3.70;;;;;;;7.37;79.22;98352.92;226367;1272;25249;-75
2023/12/30 00:57:30;;;;;;;5.50;3.40;;;;;;;7.38;79.13;98353.67;226509;1274;22633;-76
2023/12/30 01:02:33;;;;;;;5.10;3.60;;;;;;;7.38;79.16;98349.54;226470;1274;22569;-75
2023/12/30 01:07:35;;;;;;;5.20;3.50;;;;;;;7.38;79.14;98351.56;226568;1273;22646;-74
2023/12/30 01:12:37;;;;;;;5.70;3.80;;;;;;;7.38;79.28;98351.00;226449;1274;22644;-76
2023/12/30 01:17:39;;;;;;;5.00;3.40;;;;;;;7.41;79.00;98348.45;226444;1269;23392;-75
2023/12/30 01:22:42;;;;;;;4.10;3.60;;;;;;;7.42;79.23;98351.29;226439;1274;22536;-76
2023/12/30 01:27:45;;;;;;;5.60;3.70;;;;;;;7.41;78.94;98343.98;226308;1274;25337;-75
2023/12/30 01:32:47;;;;;;;5.10;3.50;;;;;;;7.41;79.05;98334.47;226464;1272;22567;-76
2023/12/30 01:37:49;;;;;;;5.10;3.50;;;;;;;7.42;79.09;98335.40;226526;1273;22552;-75
2023/12/30 01:42:52;;;;;;;4.60;3.30;;;;;;;7.44;78.87;98329.16;226425;1273;22544;-74
2023/12/30 01:47:54;;;;;;;4.70;3.60;;;;;;;7.44;78.83;98324.91;226545;1272;22537;-74
2023/12/30 01:52:57;;;;;;;3.80;3.30;;;;;;;7.45;78.70;98324.33;226681;1270;23012;-75
2023/12/30 01:57:59;;;;;;;5.80;3.20;;;;;;;7.51;79.10;98318.79;226383;1273;22548;-75
2023/12/30 02:03:02;;;;;;;4.60;3.20;;;;;;;7.54;78.82;98312.91;226400;1270;22541;-76
2023/12/30 02:08:04;;;;;;;4.60;2.50;;;;;;;7.55;78.36;98309.16;226910;1269;22551;-74
2023/12/30 02:13:08;;;;;;;5.80;3.00;;;;;;;7.57;78.51;98305.02;226434;1272;22536;-75
2023/12/30 02:18:10;;;;;;;5.10;3.60;;;;;;;7.59;78.52;98297.20;227148;1270;22539;-74
2023/12/30 02:23:12;;;;;;;7.70;4.30;;;;;;;7.59;78.19;98297.95;226573;1273;22540;-74
2023/12/30 02:28:14;;;;;;;5.80;4.40;;;;;;;7.57;78.47;98301.02;226434;1273;22536;-73
2023/12/30 02:33:16;;;;;;;6.20;3.80;;;;;;;7.54;78.37;98288.44;226494;1274;22533;-76
2023/12/30 02:38:18;;;;;;;4.60;3.30;;;;;;;7.51;78.44;98285.84;226426;1274;22887;-75
2023/12/30 02:43:22;;;;;;;5.20;3.20;;;;;;;7.48;78.26;98277.70;226378;1271;22546;-74
2023/12/30 02:48:25;;;;;;;4.50;3.00;;;;;;;7.49;78.17;98277.80;226388;1273;22549;-74
2023/12/30 02:53:27;;;;;;;4.30;3.20;;;;;;;7.49;78.03;98270.25;226497;1273;24237;-75
2023/12/30 02:58:29;;;;;;;5.60;3.10;;;;;;;7.51;78.34;98277.79;226491;1273;22561;-75
2023/12/30 03:03:31;;;;;;;4.50;2.80;;;;;;;7.48;78.03;98285.76;226382;1257;22542;-75
2023/12/30 03:08:33;;;;;;;4.40;3.10;;;;;;;7.45;78.28;98286.27;226533;1273;22540;-75
2023/12/30 03:13:35;;;;;;;3.80;2.90;;;;;;;7.41;78.24;98289.52;226559;1267;22613;-75
2023/12/30 03:18:38;;;;;;;3.80;3.30;;;;;;;7.40;78.33;98287.23;226477;1273;22607;-74
2023/12/30 03:23:41;;;;;;;3.80;3.40;;;;;;;7.38;77.88;98284.82;226559;1273;22550;-74
2023/12/30 03:28:43;;;;;;;4.10;2.90;;;;;;;7.34;77.72;98267.64;226534;1273;22551;-75
2023/12/30 03:33:45;;;;;;;4.30;3.00;;;;;;;7.27;78.14;98262.09;226554;1256;22563;-74
2023/12/30 03:38:49;;;;;;;3.00;2.50;;;;;;;7.23;78.13;98255.67;226544;1273;22545;-74
2023/12/30 03:43:52;;;;;;;3.90;2.30;;;;;;;7.17;78.20;98242.65;226415;1267;22547;-75
2023/12/30 03:48:54;;;;;;;4.40;2.80;;;;;;;7.15;78.31;98252.95;226346;1270;22557;-75
2023/12/30 03:53:56;;;;;;;4.00;2.80;;;;;;;7.15;78.23;98262.86;226430;1270;22548;-75
2023/12/30 03:58:59;;;;;;;3.50;2.40;;;;;;;7.16;78.24;98261.52;226505;1267;22536;-75
2023/12/30 04:04:02;;;;;;;2.90;2.20;;;;;;;7.13;77.95;98255.16;226563;1273;22608;-74
2023/12/30 04:09:04;;;;;;;4.40;2.50;;;;;;;7.14;77.82;98286.80;226534;1273;24901;-75
2023/12/30 04:14:07;;;;;;;3.50;2.30;;;;;;;7.14;77.84;98308.02;226510;1271;22659;-75
2023/12/30 04:19:09;;;;;;;3.40;2.20;;;;;;;7.10;77.65;98299.21;226511;1274;22565;-75
2023/12/30 04:24:11;;;;;;;2.30;1.90;;;;;;;7.05;77.71;98294.32;226451;1269;22541;-74
2023/12/30 04:29:13;;;;;;;2.90;2.20;;;;;;;7.02;77.63;98293.22;226409;1273;22497;-75
2023/12/30 04:34:15;;;;;;;1.90;1.70;;;;;;;7.04;77.83;98286.74;226508;1274;22540;-75
2023/12/30 04:39:18;;;;;;;2.20;1.60;;;;;;;7.05;77.70;98295.25;226568;1273;22660;-75
2023/12/30 04:44:20;;;;;;;3.50;2.00;;;;;;;7.05;77.73;98301.87;226542;1273;22561;-75
2023/12/30 04:49:22;;;;;;;2.30;1.70;;;;;;;7.04;77.73;98319.86;226586;1273;22547;-76
2023/12/30 04:54:30;;;;;;;2.80;1.70;;;;;;;7.01;77.98;98320.17;226402;1274;25472;-75
2023/12/30 04:59:34;;;;;;;4.00;1.90;;;;;;;7.01;77.80;98328.42;226377;1273;22544;-75
2023/12/30 05:04:36;;;;;;;2.40;2.10;;;;;;;7.01;77.79;98325.73;226371;1267;22559;-74
2023/12/30 05:09:38;;;;;;;3.30;2.00;;;;;;;7.03;77.46;98323.22;226368;1269;22549;-74
2023/12/30 05:14:40;;;;;;;2.20;1.60;;;;;;;6.99;77.63;98319.67;226379;1267;22551;-75
2023/12/30 05:19:42;;;;;;;2.40;1.60;;;;;;;6.95;77.62;98325.27;226530;1251;22541;-75
2023/12/30 05:24:44;;;;;;;2.20;1.70;;;;;;;6.95;77.63;98328.29;226380;1267;22639;-75
2023/12/30 05:29:46;;;;;;;3.20;1.90;;;;;;;6.96;77.67;98330.22;226396;1270;24234;-75
2023/12/30 05:34:49;;;;;;;2.20;1.60;;;;;;;6.97;77.42;98339.20;226421;1273;24365;-75
2023/12/30 05:39:51;;;;;;;3.80;2.10;;;;;;;6.97;77.58;98337.86;226476;1272;24224;-75
2023/12/30 05:44:53;;;;;;;3.20;2.50;;;;;;;6.97;77.22;98341.95;226544;1267;22543;-74
2023/12/30 05:49:55;;;;;;;3.00;2.00;;;;;;;6.99;77.32;98336.31;226402;1267;22970;-76
2023/12/30 05:54:57;;;;;;;3.10;1.80;;;;;;;6.99;77.28;98330.50;226472;1273;22537;-73
2023/12/30 05:59:59;;;;;;;1.70;1.60;;;;;;;6.98;77.14;98334.44;226447;1272;22545;-74
2023/12/30 06:05:01;;;;;;;2.80;1.70;;;;;;;6.94;77.15;98334.84;226431;1273;22679;-74
2023/12/30 06:10:04;;;;;;;1.80;1.60;;;;;;;6.98;77.56;98337.48;226571;1272;22551;-74
2023/12/30 06:15:07;;;;;;;2.60;1.90;;;;;;;7.07;77.23;98342.96;226499;1273;22552;-75
2023/12/30 06:20:10;;;;;;;3.50;2.40;;;;;;;7.12;77.23;98338.89;226525;1273;25383;-74
2023/12/30 06:25:12;;;;;;;2.70;2.10;;;;;;;7.17;77.31;98348.66;226352;1269;22558;-74
2023/12/30 06:30:14;;;;;;;2.50;2.00;;;;;;;7.20;77.27;98348.34;226915;1270;22576;-74
2023/12/30 06:35:16;;;;;;;2.40;2.00;;;;;;;7.19;76.90;98352.23;226496;1273;22544;-74
2023/12/30 06:40:19;;;;;;;2.60;1.80;;;;;;;7.16;77.01;98363.83;226513;1273;22547;-74
2023/12/30 06:45:21;;;;;;;3.80;2.40;;;;;;;7.11;77.12;98363.02;226488;1272;22550;-74
2023/12/30 06:50:24;;;;;;;3.90;2.30;;;;;;;7.04;77.04;98365.17;226505;1272;22670;-75
2023/12/30 06:55:26;;;;;;;4.20;2.40;;;;;;;6.96;77.24;98358.90;226511;1267;22706;-74
2023/12/30 07:00:39;;;;;;;3.60;2.30;;;;;;;6.91;77.54;98374.40;226504;1273;22531;-74
2023/12/30 07:05:41;;;;;;;3.10;2.10;;;;;;;6.88;77.34;98381.93;226538;1273;22536;-74
2023/12/30 07:10:44;;;;;;;3.70;2.70;;;;;;;6.88;77.75;98391.21;226525;1251;25327;-74
2023/12/30 07:15:47;;;;;;;3.80;2.50;;;;;;;6.88;77.58;98392.75;226504;1268;22623;-74
2023/12/30 07:20:49;;;;;;;3.40;2.30;;;;;;;6.90;77.48;98402.20;226537;1272;25429;-75
2023/12/30 07:25:51;;;;;;;2.90;1.90;;;;;;;6.92;77.75;98417.13;226468;1267;24247;-74
2023/12/30 07:30:53;;;;;;;4.00;2.60;;;;;;;6.95;77.74;98419.23;226509;1273;22544;-74
2023/12/30 07:35:57;;;;;;;3.60;2.10;;;;;;;6.99;77.76;98421.64;226474;1266;24483;-73
2023/12/30 07:40:59;;;;;;;3.40;2.10;;;;;;;7.01;77.73;98421.20;226562;1273;22547;-74
2023/12/30 07:46:01;;;;;;;3.70;2.70;;;;;;;7.11;77.78;98418.89;226576;1272;22620;-74
2023/12/30 07:51:04;;;;;;;3.10;1.90;;;;;;;7.19;77.91;98418.79;226472;1269;22575;-74
2023/12/30 07:56:06;;;;;;;3.70;2.40;;;;;;;7.29;77.84;98421.86;226523;1273;22596;-74
2023/12/30 08:01:08;;;;;;;3.60;2.70;;;;;;;7.36;77.66;98431.02;226503;1269;22553;-74
2023/12/30 08:06:11;;;;;;;3.80;2.60;;;;;;;7.46;77.47;98419.23;226580;1273;22626;-74
2023/12/30 08:11:13;;;;;;;4.50;2.50;;;;;;;7.60;77.38;98415.67;226527;1266;22548;-74
2023/12/30 08:16:15;;;;;;;4.30;2.70;;;;;;;7.81;77.03;98416.39;226440;1272;22540;-74
2023/12/30 08:21:17;;;;;;;5.30;2.70;;;;;;;8.03;77.00;98419.69;226484;1272;22529;-74
2023/12/30 08:26:19;;;;;;;3.90;2.80;;;;;;;8.19;76.29;98426.79;226455;1272;25350;-74
2023/12/30 08:31:22;;;;;;;4.60;2.60;;;;;;;8.24;75.98;98434.92;226636;1263;22540;-75
2023/12/30 08:36:26;;;;;;;4.90;2.70;;;;;;;8.23;75.97;98433.65;226614;1272;22546;-75
2023/12/30 08:41:28;;;;;;;4.40;3.20;;;;;;;8.24;75.80;98446.89;226590;1273;25297;-75
2023/12/30 08:46:30;;;;;;;4.70;3.10;;;;;;;8.34;75.98;98447.71;226596;1272;22555;-75
2023/12/30 08:51:32;;;;;;;4.80;3.20;;;;;;;8.51;75.62;98450.53;226527;1272;22583;-75
2023/12/30 08:56:34;;;;;;;6.50;3.70;;;;;;;8.62;75.27;98459.11;226587;1271;22572;-74
2023/12/30 09:01:37;;;;;;;4.80;3.30;;;;;;;8.69;74.76;98462.89;226443;1270;22527;-74
2023/12/30 09:06:39;;;;;;;4.50;2.90;;;;;;;8.68;74.78;98462.83;226362;1273;22581;-74
2023/12/30 09:11:42;;;;;;;4.00;2.70;;;;;;;8.68;74.67;98462.51;226566;1269;22991;-75
2023/12/30 09:16:45;;;;;;;4.20;2.40;;;;;;;8.71;74.23;98461.90;226558;1274;22556;-74
2023/12/30 09:21:47;;;;;;;4.10;2.70;;;;;;;8.75;73.99;98469.88;226555;1272;22550;-74
2023/12/30 09:26:49;;;;;;;5.20;3.20;;;;;;;8.78;73.59;98473.36;226580;1269;22555;-74
2023/12/30 09:31:51;;;;;;;3.60;2.90;;;;;;;8.78;74.07;98478.34;226480;1272;22558;-75
2023/12/30 09:36:53;;;;;;;4.10;2.20;;;;;;;8.80;74.00;98478.41;226557;1270;24222;-74
2023/12/30 09:41:56;;;;;;;3.20;2.00;;;;;;;8.83;73.78;98476.77;226611;1263;22541;-74
2023/12/30 09:47:00;;;;;;;2.90;2.00;;;;;;;8.89;73.60;98477.12;226596;1272;22555;-74
2023/12/30 09:52:04;;;;;;;3.00;2.20;;;;;;;8.93;74.16;98486.75;226522;1273;23126;-75
2023/12/30 09:57:06;;;;;;;5.10;3.00;;;;;;;8.89;74.21;98487.65;226403;1269;24355;-75
2023/12/30 10:02:09;;;;;;;4.50;3.00;;;;;;;8.86;74.34;98498.08;226270;1269;25300;-74
2023/12/30 10:07:13;;;;;;;5.20;3.00;;;;;;;8.92;74.54;98498.06;226534;1269;22531;-75
2023/12/30 10:12:15;;;;;;;4.70;3.00;;;;;;;9.00;74.09;98514.75;226374;1270;22563;-74
2023/12/30 10:17:18;;;;;;;4.30;2.70;;;;;;;8.97;74.53;98514.89;226262;1270;22615;-75
2023/12/30 10:22:20;;;;;;;4.90;2.90;;;;;;;8.94;74.85;98529.11;226228;1273;22703;-75
2023/12/30 10:27:22;;;;;;;4.80;3.30;;;;;;;8.92;75.16;98550.77;226344;1273;24247;-74
2023/12/30 10:32:24;;;;;;;4.10;2.50;;;;;;;8.81;75.41;98577.02;226443;1269;25935;-74
2023/12/30 10:37:27;;;;;;;3.40;2.20;;;;;;;8.53;76.27;98590.02;226556;1269;22660;-75
2023/12/30 10:42:29;;;;;;;3.60;2.00;;;;;;;8.05;77.41;98599.71;226490;1272;22548;-76
2023/12/30 10:47:36;;;;;;;6.70;3.20;;;;;;;7.54;78.67;98617.34;226533;1271;22561;-75
2023/12/30 10:52:59;;;;;;;6.10;2.50;;;;;;;7.14;79.79;98633.75;226635;1273;25734;-75
2023/12/30 10:58:06;;;;;;;4.60;2.70;;;;;;;6.86;80.60;98639.35;226491;1266;25246;-74
2023/12/30 11:03:10;;;;;;;3.00;2.20;;;;;;;6.71;81.67;98601.86;226477;1272;22660;-76
2023/12/30 11:08:12;;;;;;;4.00;2.50;;;;;;;6.69;81.60;98581.25;226414;1272;22551;-76
2023/12/30 11:13:14;;;;;;;2.80;2.00;;;;;;;6.75;81.90;98582.39;226555;1272;22724;-76
2023/12/30 11:18:48;;;;;;;4.90;2.40;;;;;;;6.83;82.19;98589.80;226352;1273;22545;-74
2023/12/30 11:24:00;;;;;;;3.60;2.40;;;;;;;6.93;82.76;98606.44;226448;1273;22537;-75
2023/12/30 11:29:03;;;;;;;5.90;2.90;;;;;;;7.01;82.89;98612.20;226281;1266;155665;-75
2023/12/30 11:34:05;;;;;;;3.80;2.10;;;;;;;7.02;82.90;98613.30;226198;1256;25259;-76
2023/12/30 11:39:08;;;;;;;5.90;2.50;;;;;;;7.04;83.49;98615.02;226280;1253;22923;-74
2023/12/30 11:44:11;;;;;;;1.50;1.10;;;;;;;7.01;83.19;98610.64;226413;1270;22520;-76
2023/12/30 11:49:20;;;;;;;2.30;1.20;;;;;;;6.91;82.82;98605.27;226117;1250;22539;-76
2023/12/30 11:54:22;;;;;;;2.10;1.10;;;;;;;6.81;82.59;98603.82;226320;1257;22608;-76
2023/12/30 11:59:25;;;;;;;2.00;1.10;;;;;;;6.73;83.21;98608.33;226534;1274;22551;-76
2023/12/30 12:04:27;;;;;;;2.70;1.40;;;;;;;6.63;83.64;98617.08;226538;1269;22564;-78
2023/12/30 12:09:29;;;;;;;4.10;1.80;;;;;;;6.56;83.88;98612.61;226518;1271;24238;-77
2023/12/30 12:14:31;;;;;;;3.80;2.00;;;;;;;6.54;84.76;98605.11;226521;1272;24266;-76
2023/12/30 12:19:36;;;;;;;5.90;2.00;;;;;;;6.56;84.53;98591.42;226494;1269;22543;-75
2023/12/30 12:24:40;;;;;;;2.90;1.50;;;;;;;6.58;84.74;98602.67;226571;1270;22536;-76
2023/12/30 12:29:48;;;;;;;1.10;0.80;;;;;;;6.55;84.93;98601.92;226552;1274;22558;-76
2023/12/30 12:34:54;;;;;;;2.60;1.90;;;;;;;6.53;84.37;98613.71;226703;1272;22568;-77
2023/12/30 12:39:56;;;;;;;3.80;2.60;;;;;;;6.46;84.66;98616.09;226522;1272;22544;-76
2023/12/30 12:44:58;;;;;;;3.40;1.60;;;;;;;6.39;84.48;98619.08;226479;1260;22592;-76
2023/12/30 12:50:01;;;;;;;3.60;1.90;;;;;;;6.34;84.50;98617.67;226494;1273;22579;-76
2023/12/30 12:55:04;;;;;;;2.20;1.30;;;;;;;6.30;84.13;98617.05;226536;1266;22549;-77
2023/12/30 13:00:08;;;;;;;1.50;1.00;;;;;;;6.30;84.23;98617.61;226504;1269;22583;-77
2023/12/30 13:05:14;;;;;;;3.00;1.70;;;;;;;6.32;84.15;98614.36;226541;1269;23422;-76
2023/12/30 13:10:36;;;;;;;2.00;1.70;;;;;;;6.32;84.02;98623.52;226448;1270;24276;-76
2023/12/30 13:15:39;;;;;;;1.90;1.50;;;;;;;6.28;84.21;98616.20;226542;1272;22557;-76
2023/12/30 13:20:41;;;;;;;2.10;1.40;;;;;;;6.26;84.02;98624.35;226505;1269;22539;-74
2023/12/30 13:25:48;;;;;;;3.90;2.40;;;;;;;6.24;84.32;98618.94;226559;1270;22526;-75
2023/12/30 13:30:50;;;;;;;4.70;3.50;;;;;;;6.22;84.20;98614.60;226466;1269;22542;-76
2023/12/30 13:35:55;;;;;;;4.90;3.20;;;;;;;6.22;84.57;98613.91;226542;1269;22529;-75
2023/12/30 13:41:00;;;;;;;2.70;2.10;;;;;;;6.21;84.77;98615.39;226488;1273;22675;-78
2023/12/30 13:46:30;;;;;;;3.80;2.10;;;;;;;6.17;84.57;98611.81;226489;1271;25334;-75
2023/12/30 13:51:24;;;;;;;4.60;2.70;;;;;;;6.14;84.82;98615.29;226536;1272;22646;-77
2023/12/30 13:56:27;;;;;;;5.30;3.30;;;;;;;6.14;84.63;98622.63;226466;1270;22551;-76
2023/12/30 14:01:32;;;;;;;7.20;3.20;;;;;;;6.13;85.11;98627.17;226525;1272;22529;-74
2023/12/30 14:06:38;;;;;;;6.20;3.70;;;;;;;6.11;84.96;98627.47;226539;1267;22537;-75
2023/12/30 14:11:46;;;;;;;5.60;3.50;;;;;;;6.10;85.15;98630.28;226519;1269;22608;-75
2023/12/30 14:16:49;;;;;;;6.70;4.20;;;;;;;6.09;85.21;98632.33;226488;1269;22550;-77
2023/12/30 14:21:51;;;;;;;5.90;3.50;;;;;;;6.10;85.02;98629.01;226523;1272;22540;-76
2023/12/30 14:26:55;;;;;;;5.40;3.50;;;;;;;6.12;85.26;98630.58;226414;1274;22555;-76
2023/12/30 14:31:57;;;;;;;9.00;4.20;;;;;;;6.11;85.07;98631.34;226565;1272;22536;-76
2023/12/30 14:36:59;;;;;;;8.10;5.20;;;;;;;6.09;84.79;98634.71;226458;1273;22544;-76
2023/12/30 14:42:02;;;;;;;10.00;5.80;;;;;;;6.08;84.87;98634.86;226369;1274;25331;-75
2023/12/30 14:47:05;;;;;;;8.00;4.80;;;;;;;6.08;84.98;98637.88;226356;1272;25369;-76
2023/12/30 14:52:06;;;;;;;8.90;5.60;;;;;;;6.08;84.99;98634.11;226455;1251;22568;-76
2023/12/30 14:57:09;;;;;;;7.60;5.40;;;;;;;6.08;84.70;98638.66;226407;1272;22540;-77
2023/12/30 15:02:11;;;;;;;8.60;5.60;;;;;;;6.08;85.00;98642.56;226471;1273;22537;-76
2023/12/30 15:07:13;;;;;;;8.60;5.60;;;;;;;6.08;84.83;98646.69;226520;1274;22594;-76
2023/12/30 15:12:20;;;;;;;9.10;5.40;;;;;;;6.08;85.13;98649.87;226456;1273;22891;-76
2023/12/30 15:17:23;;;;;;;8.50;4.90;;;;;;;6.08;85.39;98657.77;226538;1273;22543;-76
2023/12/30 15:22:27;;;;;;;11.40;5.40;;;;;;;6.07;85.07;98661.31;226514;1274;22541;-74
2023/12/30 15:27:31;;;;;;;10.30;6.10;;;;;;;6.06;85.12;98664.95;227011;1272;22547;-76
2023/12/30 15:32:33;;;;;;;9.10;5.80;;;;;;;6.06;85.48;98667.73;226359;1274;22733;-78
2023/12/30 15:37:36;;;;;;;10.10;6.50;;;;;;;6.06;85.17;98667.45;226414;1267;22586;-75
2023/12/30 15:42:38;;;;;;;12.10;7.40;;;;;;;6.03;85.16;98674.05;226455;1263;22547;-77
2023/12/30 15:47:43;;;;;;;11.10;7.50;;;;;;;6.01;85.46;98670.15;226484;1269;22539;-76
2023/12/30 15:52:45;;;;;;;11.50;7.60;;;;;;;6.00;85.45;98660.64;226441;1270;22583;-75
2023/12/30 15:57:48;;;;;;;13.20;9.00;;;;;;;5.98;85.57;98654.27;226358;1269;24667;-76
2023/12/30 16:02:50;;;;;;;12.50;8.30;;;;;;;5.96;85.13;98649.41;226427;1272;22626;-75
2023/12/30 16:07:52;;;;;;;14.60;10.00;;;;;;;5.92;85.15;98645.98;226410;1274;22574;-76
2023/12/30 16:12:55;;;;;;;17.10;10.80;;;;;;;5.89;85.31;98651.52;226391;1274;22538;-76
2023/12/30 16:17:57;;;;;;;18.60;12.00;;;;;;;5.86;85.59;98664.19;226551;1274;22574;-77
2023/12/30 16:23:03;;;;;;;23.00;13.90;;;;;;;5.86;85.70;98670.84;226445;1266;22638;-75
2023/12/30 16:28:06;;;;;;;23.90;15.20;;;;;;;5.89;85.58;98677.96;226530;1263;22559;-75
2023/12/30 16:33:12;;;;;;;20.00;12.90;;;;;;;5.89;85.34;98672.71;226577;1271;22522;-75
2023/12/30 16:38:15;;;;;;;18.60;12.80;;;;;;;5.88;85.40;98674.52;226628;1272;22568;-76
2023/12/30 16:43:17;;;;;;;19.00;13.10;;;;;;;5.88;85.32;98674.51;226564;1272;22554;-75
2023/12/30 16:48:19;;;;;;;20.80;13.90;;;;;;;5.91;85.65;98675.95;226554;1270;22544;-76
2023/12/30 16:53:22;;;;;;;18.90;12.90;;;;;;;5.93;85.80;98680.09;226486;1274;24244;-75
2023/12/30 16:58:24;;;;;;;22.70;14.60;;;;;;;5.94;85.74;98684.35;226515;1274;22551;-74
2023/12/30 17:03:26;;;;;;;20.50;13.70;;;;;;;5.95;85.78;98680.58;226505;1272;22523;-75
2023/12/30 17:08:29;;;;;;;21.60;14.30;;;;;;;5.96;85.74;98684.68;226551;1272;22609;-76
2023/12/30 17:13:31;;;;;;;22.30;14.20;;;;;;;5.97;85.77;98692.13;226399;1269;22554;-76
2023/12/30 17:18:45;;;;;;;25.90;17.90;;;;;;;5.98;85.73;98705.30;226480;1269;22559;-77
2023/12/30 17:23:48;;;;;;;18.40;13.00;;;;;;;5.96;85.59;98718.88;226525;1272;24256;-74
2023/12/30 17:28:51;;;;;;;23.30;15.10;;;;;;;5.98;86.19;98724.12;226497;1272;22568;-76
2023/12/30 17:33:55;;;;;;;19.60;13.30;;;;;;;6.00;86.41;98721.81;226516;1272;22557;-75
2023/12/30 17:38:58;;;;;;;16.90;10.00;;;;;;;6.02;86.03;98739.29;226470;1274;25014;-74
2023/12/30 17:44:00;;;;;;;10.00;4.60;;;;;;;6.02;86.17;98768.66;226432;1270;22540;-76
2023/12/30 17:49:06;;;;;;;3.70;1.70;;;;;;;5.89;85.79;98779.80;226443;1274;22544;-77
2023/12/30 17:54:08;;;;;;;2.80;1.50;;;;;;;5.59;85.46;98787.58;226468;1274;22553;-77
2023/12/30 17:59:10;;;;;;;4.10;2.10;;;;;;;5.36;85.90;98803.60;226472;1274;22547;-76
2023/12/30 18:04:14;;;;;;;5.00;2.30;;;;;;;5.20;86.33;98810.93;226408;1272;22542;-77
2023/12/30 18:09:16;;;;;;;4.40;2.10;;;;;;;5.09;86.72;98803.02;226506;1272;22549;-76
2023/12/30 18:14:22;;;;;;;2.80;2.10;;;;;;;5.03;86.76;98788.09;226577;1272;25284;-76
2023/12/30 18:19:25;;;;;;;4.80;2.40;;;;;;;5.00;86.78;98786.44;226388;1270;22543;-77
2023/12/30 18:24:27;;;;;;;2.80;2.00;;;;;;;5.00;86.87;98771.27;226348;1273;22566;-76
2023/12/30 18:29:31;;;;;;;2.90;1.40;;;;;;;5.01;87.74;98747.95;226406;1274;22570;-76
2023/12/30 18:34:38;;;;;;;1.50;1.40;;;;;;;4.99;87.82;98758.64;226382;1270;22542;-76
2023/12/30 18:39:40;;;;;;;3.70;2.60;;;;;;;4.96;88.23;98762.52;226654;1273;22553;-76
2023/12/30 18:44:43;;;;;;;4.80;3.00;;;;;;;4.95;87.69;98762.80;226390;1274;25359;-78
2023/12/30 18:49:45;;;;;;;5.20;3.30;;;;;;;4.92;87.56;98762.92;226400;1272;24212;-76
2023/12/30 18:54:47;;;;;;;6.40;3.70;;;;;;;4.87;87.68;98767.69;226485;1250;23258;-77
2023/12/30 18:59:49;;;;;;;5.20;3.10;;;;;;;4.77;87.40;98776.53;226461;1272;22555;-77
2023/12/30 19:04:53;;;;;;;6.10;3.40;;;;;;;4.63;87.63;98776.29;226489;1272;22541;-76
2023/12/30 19:09:56;;;;;;;6.70;4.10;;;;;;;4.51;87.71;98772.09;226519;1274;22612;-78
2023/12/30 19:15:01;;;;;;;7.80;5.40;;;;;;;4.39;88.08;98771.85;226408;1266;22563;-77
2023/12/30 19:20:05;;;;;;;9.80;6.50;;;;;;;4.30;87.89;98781.36;226384;1274;22585;-77
2023/12/30 19:25:08;;;;;;;7.90;6.10;;;;;;;4.23;88.22;98777.30;226627;1270;22531;-77
2023/12/30 19:30:12;;;;;;;11.50;8.00;;;;;;;4.22;88.34;98778.23;226607;1271;22555;-77
2023/12/30 19:35:16;;;;;;;15.20;9.70;;;;;;;4.27;88.66;98783.02;226488;1274;22979;-77
2023/12/30 19:40:19;;;;;;;13.30;7.40;;;;;;;4.33;88.65;98791.09;226529;1272;23060;-77
2023/12/30 19:45:22;;;;;;;14.80;7.40;;;;;;;4.39;89.08;98795.28;226338;1274;22558;-76
2023/12/30 19:50:24;;;;;;;11.00;7.30;;;;;;;4.44;89.41;98796.13;226396;1274;22555;-75
2023/12/30 19:55:27;;;;;;;10.90;6.70;;;;;;;4.47;89.14;98800.55;226505;1274;24920;-78
2023/12/30 20:00:33;;;;;;;14.20;8.10;;;;;;;4.50;89.18;98799.16;226473;1273;22545;-77
2023/12/30 20:05:37;;;;;;;10.70;8.10;;;;;;;4.55;89.01;98800.80;226453;1271;22546;-77
2023/12/30 20:10:39;;;;;;;10.70;7.30;;;;;;;4.58;89.23;98802.80;226522;1273;24620;-77
2023/12/30 20:15:42;;;;;;;13.80;8.10;;;;;;;4.64;89.57;98807.84;226502;1273;22540;-77
2023/12/30 20:20:49;;;;;;;16.70;8.80;;;;;;;4.68;89.46;98810.08;226556;1274;22570;-77
2023/12/30 20:25:53;;;;;;;13.90;8.90;;;;;;;4.73;89.62;98816.58;226616;1274;22548;-76
2023/12/30 20:30:57;;;;;;;14.40;10.10;;;;;;;4.77;89.39;98818.72;226596;1273;22662;-77
2023/12/30 20:36:04;;;;;;;15.20;9.10;;;;;;;4.83;89.70;98820.20;226419;1274;22560;-76
2023/12/30 20:41:06;;;;;;;18.20;9.20;;;;;;;4.92;89.64;98815.66;226510;1274;22562;-76
2023/12/30 20:46:10;;;;;;;21.00;10.70;;;;;;;5.00;89.73;98809.64;226530;1271;22575;-76
2023/12/30 20:51:12;;;;;;;15.00;9.50;;;;;;;5.05;89.70;98802.71;226426;1260;22537;-76
2023/12/30 20:56:15;;;;;;;13.90;8.40;;;;;;;5.06;89.22;98800.48;226465;1272;22556;-76
2023/12/30 21:01:22;;;;;;;10.40;7.20;;;;;;;5.06;89.51;98797.67;226513;1272;22537;-76
2023/12/30 21:06:27;;;;;;;9.20;5.90;;;;;;;5.06;89.42;98795.42;226593;1274;22523;-78
2023/12/30 21:11:32;;;;;;;11.30;7.10;;;;;;;5.04;89.38;98799.65;226533;1272;22567;-77
2023/12/30 21:16:35;;;;;;;9.20;6.10;;;;;;;5.02;89.47;98798.43;226493;1274;22545;-76
2023/12/30 21:21:39;;;;;;;8.80;6.00;;;;;;;5.03;89.61;98811.27;226542;1272;22544;-76
2023/12/30 21:26:42;;;;;;;10.00;6.00;;;;;;;5.04;89.26;98818.48;226514;1272;22539;-77
2023/12/30 21:31:44;;;;;;;10.40;7.30;;;;;;;5.05;89.15;98823.84;226525;1274;22579;-76
2023/12/30 21:36:48;;;;;;;15.10;10.60;;;;;;;5.05;89.29;98835.67;226608;1272;22568;-77
2023/12/30 21:41:50;;;;;;;17.50;10.90;;;;;;;5.06;89.47;98830.84;226352;1274;25268;-76
2023/12/30 21:46:56;;;;;;;18.40;11.10;;;;;;;5.09;89.14;98836.50;226444;1273;25303;-76
2023/12/30 21:51:59;;;;;;;17.40;10.40;;;;;;;5.11;89.68;98836.45;226709;1273;22534;-76
2023/12/30 21:57:01;;;;;;;14.20;10.60;;;;;;;5.15;89.85;98832.11;226563;1273;22581;-76
2023/12/30 22:02:03;;;;;;;14.10;9.60;;;;;;;5.15;89.59;98837.84;226522;1271;25380;-76
2023/12/30 22:07:05;;;;;;;13.00;8.40;;;;;;;5.14;89.36;98833.08;226425;1274;24266;-76
2023/12/30 22:12:07;;;;;;;12.60;9.20;;;;;;;5.11;89.80;98828.11;226502;1270;24851;-76
2023/12/30 22:17:09;;;;;;;14.90;9.90;;;;;;;5.05;89.43;98829.20;226428;1273;22551;-76
2023/12/30 22:22:12;;;;;;;18.20;12.00;;;;;;;4.95;89.41;98824.64;226463;1274;25376;-76
2023/12/30 22:27:14;;;;;;;17.00;11.20;;;;;;;4.83;89.33;98817.45;226404;1273;22533;-77
2023/12/30 22:32:16;;;;;;;17.30;10.80;;;;;;;4.71;89.62;98827.31;226450;1273;22629;-77
2023/12/30 22:37:21;;;;;;;14.40;10.50;;;;;;;4.61;89.36;98824.00;226437;1273;23038;-77
2023/12/30 22:42:23;;;;;;;20.90;12.50;;;;;;;4.49;89.41;98815.02;226364;1270;22549;-77
2023/12/30 22:47:26;;;;;;;20.20;14.80;;;;;;;4.37;89.23;98814.48;226425;1270;23342;-76
2023/12/30 22:52:28;;;;;;;24.40;15.20;;;;;;;4.25;89.55;98810.38;226476;1275;22556;-76
2023/12/30 22:57:30;;;;;;;24.10;15.50;;;;;;;4.13;89.40;98814.48;226432;1270;22538;-76
2023/12/30 23:02:32;;;;;;;26.30;18.60;;;;;;;4.00;89.37;98827.27;226402;1270;25405;-78
2023/12/30 23:07:34;;;;;;;20.00;15.00;;;;;;;3.84;89.23;98828.72;226308;1273;25332;-77
2023/12/30 23:12:36;;;;;;;23.80;19.10;;;;;;;3.69;89.09;98834.55;226468;1274;25262;-77
2023/12/30 23:17:40;;;;;;;30.60;24.40;;;;;;;3.51;89.37;98831.53;226502;1274;25375;-76
2023/12/30 23:22:42;;;;;;;31.50;24.10;;;;;;;3.38;89.48;98825.27;226438;1273;25246;-77
2023/12/30 23:27:46;;;;;;;35.20;25.30;;;;;;;3.27;89.61;98811.77;226323;1273;194477;-77
2023/12/30 23:32:48;;;;;;;35.50;24.30;;;;;;;3.19;89.65;98804.92;226517;1273;22556;-77
2023/12/30 23:37:50;;;;;;;35.00;24.50;;;;;;;3.10;90.17;98803.79;226544;1271;22590;-76